Shaftsbury, Vermont
Current Conditions -  °F | °C
As of 1:54 AM on Saturday 20 Dec 2014 (Local Time) from KDDH Reporting Station
Overcast Overcast  
Wind Chill: 22°   Ceiling: 1800
Heat Index: 22°   Visibility: 10mi
Dew Point: 16°   Wind: 3mph
Humidity: 78%   Direction: 320°NW
Pressure: 30.17"   Gusts: NA
Location:  43.01°N, 73.19°W
Report Text: KDDH 200654Z AUTO 32003KT 10SM OVC018 M06/M09 A3017 RMK AO2 SLP229 T10561089
Loading
Personal Weather Stations






























Interactive Weather Map New forecast layout! Learn more

10-Day Weather Forecast

Advertisements
Track Severe Weather on mobile